createdAt,value
2023-04-28T00:01:44.673Z,8.28
2023-04-28T00:06:46.334Z,8.31
2023-04-28T00:11:47.845Z,8.26
2023-04-28T00:16:49.637Z,8.24
2023-04-28T00:21:51.188Z,8.23
2023-04-28T00:26:52.660Z,8.33
2023-04-28T00:31:54.126Z,8.36
2023-04-28T00:36:55.797Z,8.42
2023-04-28T00:41:57.787Z,8.43
2023-04-28T00:46:59.748Z,8.34
2023-04-28T00:52:05.265Z,8.28
2023-04-28T00:57:07.995Z,8.18
2023-04-28T01:02:09.462Z,8.23
2023-04-28T01:07:11.725Z,8.14
2023-04-28T01:12:13.342Z,8.23
2023-04-28T01:17:14.878Z,8.29
2023-04-28T01:22:16.700Z,8.23
2023-04-28T01:27:18.258Z,8.25
2023-04-28T01:32:19.700Z,8.27
2023-04-28T01:37:21.160Z,8.22
2023-04-28T01:42:22.653Z,8.16
2023-04-28T01:47:24.145Z,8.03
2023-04-28T01:52:27.327Z,7.84
2023-04-28T01:57:29.190Z,7.89
2023-04-28T02:02:31.001Z,7.96
2023-04-28T02:07:32.596Z,8.01
2023-04-28T02:12:34.054Z,8.05
2023-04-28T02:17:35.729Z,8.06
2023-04-28T02:22:37.198Z,8.05
2023-04-28T02:27:38.670Z,8.00
2023-04-28T02:32:40.150Z,7.89
2023-04-28T02:37:41.673Z,7.90
2023-04-28T02:42:43.124Z,7.91
2023-04-28T02:47:44.707Z,7.92
2023-04-28T02:52:48.339Z,7.83
2023-04-28T02:57:50.605Z,7.81
2023-04-28T03:02:52.109Z,7.83
2023-04-28T03:07:54.022Z,7.81
2023-04-28T03:12:55.439Z,7.80
2023-04-28T03:17:56.902Z,7.79
2023-04-28T03:22:58.489Z,7.73
2023-04-28T03:27:59.931Z,7.64
2023-04-28T03:33:01.470Z,7.37
2023-04-28T03:38:03.011Z,7.36
2023-04-28T03:43:05.010Z,7.39
2023-04-28T03:48:07.405Z,7.40
2023-04-28T03:53:08.949Z,7.45
2023-04-28T03:58:10.694Z,7.35
2023-04-28T04:03:12.332Z,7.51
2023-04-28T04:08:13.911Z,7.48
2023-04-28T04:13:15.508Z,7.45
2023-04-28T04:18:16.991Z,7.36
2023-04-28T04:23:18.391Z,7.32
2023-04-28T04:28:19.822Z,7.39
2023-04-28T04:33:21.264Z,7.47
2023-04-28T04:38:22.670Z,7.54
2023-04-28T04:43:24.157Z,7.60
2023-04-28T04:48:25.646Z,7.66
2023-04-28T04:53:27.194Z,7.56
2023-04-28T04:58:29.160Z,7.52
2023-04-28T05:03:30.828Z,7.64
2023-04-28T05:08:32.346Z,7.73
2023-04-28T05:13:33.764Z,7.70
2023-04-28T05:18:35.228Z,7.79
2023-04-28T05:23:36.639Z,7.87
2023-04-28T05:28:40.652Z,8.10
2023-04-28T05:33:42.193Z,8.18
2023-04-28T05:38:44.318Z,8.43
2023-04-28T05:43:46.425Z,8.47
2023-04-28T05:48:47.899Z,8.55
2023-04-28T05:53:49.343Z,8.73
2023-04-28T05:58:51.349Z,8.90
2023-04-28T06:03:54.013Z,9.09
2023-04-28T06:08:55.762Z,9.29
2023-04-28T06:13:57.267Z,9.61
2023-04-28T06:18:58.731Z,9.69
2023-04-28T06:24:00.859Z,9.97
2023-04-28T06:29:02.584Z,10.04
2023-04-28T06:34:03.999Z,10.41
2023-04-28T06:39:05.748Z,10.45
2023-04-28T06:44:07.221Z,10.66
2023-04-28T06:49:08.678Z,10.92
2023-04-28T06:54:10.103Z,11.18
2023-04-28T06:59:11.511Z,11.18
2023-04-28T07:04:13.084Z,11.32
2023-04-28T07:09:15.928Z,11.48
2023-04-28T07:14:17.616Z,11.66
2023-04-28T07:19:19.287Z,11.79
2023-04-28T07:24:20.741Z,11.81
2023-04-28T07:29:22.171Z,12.06
2023-04-28T07:34:23.620Z,12.31
2023-04-28T07:39:25.172Z,12.48
2023-04-28T07:44:26.747Z,12.70
2023-04-28T07:49:32.035Z,12.67
2023-04-28T07:54:35.110Z,12.97
2023-04-28T07:59:38.365Z,13.36
2023-04-28T08:04:39.961Z,13.76
2023-04-28T08:09:44.114Z,14.05
2023-04-28T08:14:45.527Z,14.14
2023-04-28T08:19:47.574Z,14.07
2023-04-28T08:24:48.989Z,14.41
2023-04-28T08:29:50.457Z,14.75
2023-04-28T08:34:51.863Z,14.70
2023-04-28T08:40:02.170Z,14.83
2023-04-28T08:45:05.549Z,14.80
2023-04-28T08:50:08.683Z,14.79
2023-04-28T08:55:12.837Z,14.74
2023-04-28T09:00:15.088Z,15.09
2023-04-28T09:05:16.833Z,15.24
2023-04-28T09:10:23.542Z,15.53
2023-04-28T09:15:41.001Z,15.54
2023-04-28T09:20:42.563Z,15.62
2023-04-28T09:25:59.767Z,15.68
2023-04-28T09:31:01.811Z,15.80
2023-04-28T09:36:03.441Z,15.74
2023-04-28T09:41:05.105Z,15.93
2023-04-28T09:46:06.600Z,16.38
2023-04-28T09:51:09.107Z,16.29
2023-04-28T09:56:11.850Z,16.51
2023-04-28T10:01:14.632Z,16.40
2023-04-28T10:06:16.242Z,16.70
2023-04-28T10:11:17.945Z,16.91
2023-04-28T10:16:19.838Z,16.88
2023-04-28T10:21:23.577Z,16.93
2023-04-28T10:26:56.549Z,17.16
2023-04-28T10:32:17.539Z,17.13
2023-04-28T10:37:19.500Z,17.18
2023-04-28T10:42:52.950Z,17.28
2023-04-28T10:48:04.439Z,17.44
2023-04-28T10:53:06.404Z,17.54
2023-04-28T10:58:28.058Z,17.67
2023-04-28T11:03:52.377Z,17.57
2023-04-28T11:08:57.460Z,17.53
2023-04-28T11:14:17.153Z,17.67
2023-04-28T11:19:20.174Z,17.82
2023-04-28T11:24:22.976Z,17.90
2023-04-28T11:29:41.575Z,18.15
2023-04-28T11:34:43.069Z,18.27
2023-04-28T11:39:45.386Z,18.05
2023-04-28T11:44:54.489Z,18.15
2023-04-28T11:49:57.229Z,18.07
2023-04-28T11:55:02.325Z,18.00
2023-04-28T12:00:14.955Z,17.78
2023-04-28T12:05:16.972Z,18.05
2023-04-28T12:10:19.880Z,18.18
2023-04-28T12:15:22.722Z,18.41
2023-04-28T12:20:35.408Z,18.52
2023-04-28T12:25:44.475Z,18.84
2023-04-28T12:30:45.964Z,18.93
2023-04-28T12:35:49.028Z,19.05
2023-04-28T12:40:50.578Z,19.28
2023-04-28T12:45:56.519Z,19.34
2023-04-28T12:50:58.148Z,19.48
2023-04-28T12:55:59.584Z,19.42
2023-04-28T13:01:02.072Z,19.33
2023-04-28T13:06:04.409Z,19.04
2023-04-28T13:11:16.084Z,19.18
2023-04-28T13:16:29.235Z,19.21
2023-04-28T13:21:30.735Z,19.21
2023-04-28T13:26:32.264Z,19.01
2023-04-28T13:31:34.452Z,18.72
2023-04-28T13:36:36.287Z,18.59
2023-04-28T13:41:37.984Z,18.65
2023-04-28T13:46:39.506Z,18.78
2023-04-28T13:51:41.164Z,18.99
2023-04-28T13:56:42.614Z,18.84
2023-04-28T14:01:44.264Z,18.77
2023-04-28T14:06:45.961Z,18.35
2023-04-28T14:11:47.551Z,18.39
2023-04-28T14:16:49.056Z,18.49
2023-04-28T14:21:50.470Z,18.39
2023-04-28T14:26:52.767Z,18.27
2023-04-28T14:31:54.172Z,18.21
2023-04-28T14:36:55.687Z,18.21
2023-04-28T14:41:57.200Z,18.39
2023-04-28T14:46:59.703Z,18.30
2023-04-28T14:52:01.590Z,18.15
2023-04-28T14:57:03.118Z,18.35
2023-04-28T15:02:04.953Z,18.30
2023-04-28T15:07:09.226Z,18.49
2023-04-28T15:12:10.755Z,18.60
2023-04-28T15:17:12.288Z,18.71
2023-04-28T15:22:14.008Z,18.48
2023-04-28T15:27:15.622Z,18.34
2023-04-28T15:32:17.473Z,18.28
2023-04-28T15:37:37.153Z,18.02
2023-04-28T15:42:39.205Z,17.93
2023-04-28T15:47:41.317Z,18.02
2023-04-28T15:52:46.451Z,17.94
2023-04-28T15:57:48.480Z,18.05
2023-04-28T16:02:50.321Z,18.07
2023-04-28T16:07:52.784Z,17.88
2023-04-28T16:12:54.190Z,17.90
2023-04-28T16:17:56.903Z,17.74
2023-04-28T16:22:58.399Z,17.61
2023-04-28T16:27:59.810Z,17.62
2023-04-28T16:33:01.403Z,17.51
2023-04-28T16:38:02.969Z,17.39
2023-04-28T16:43:04.419Z,17.47
2023-04-28T16:48:06.341Z,17.32
2023-04-28T16:53:08.164Z,17.24
2023-04-28T16:58:09.571Z,17.03
2023-04-28T17:03:11.638Z,17.02
2023-04-28T17:08:13.880Z,17.09
2023-04-28T17:13:15.652Z,17.00
2023-04-28T17:18:17.087Z,16.85
2023-04-28T17:23:19.220Z,16.75
2023-04-28T17:28:20.713Z,16.63
2023-04-28T17:33:22.113Z,16.30
2023-04-28T17:38:23.826Z,16.20
2023-04-28T17:43:25.777Z,16.02
2023-04-28T17:48:27.252Z,15.95
2023-04-28T17:53:28.660Z,15.77
2023-04-28T17:58:32.342Z,15.64
2023-04-28T18:03:35.515Z,15.45
2023-04-28T18:08:37.217Z,15.39
2023-04-28T18:13:38.701Z,15.33
2023-04-28T18:18:40.707Z,15.23
2023-04-28T18:23:42.280Z,15.15
2023-04-28T18:28:48.105Z,15.01
2023-04-28T18:33:49.677Z,14.91
2023-04-28T18:38:51.116Z,14.86
2023-04-28T18:43:52.536Z,14.76
2023-04-28T18:48:54.598Z,14.62
2023-04-28T18:53:56.099Z,14.56
2023-04-28T18:58:57.681Z,14.58
2023-04-28T19:03:59.229Z,14.58
2023-04-28T19:09:01.499Z,14.58
2023-04-28T19:14:02.979Z,14.59
2023-04-28T19:19:04.539Z,14.62
2023-04-28T19:24:06.715Z,14.60
2023-04-28T19:29:08.238Z,14.56
2023-04-28T19:34:09.666Z,14.65
2023-04-28T19:39:11.083Z,14.55
2023-04-28T19:44:12.670Z,14.55
2023-04-28T19:49:14.153Z,14.44
2023-04-28T19:54:16.725Z,14.45
2023-04-28T19:59:18.300Z,14.40
2023-04-28T20:04:19.809Z,14.36
2023-04-28T20:09:21.378Z,14.28
2023-04-28T20:14:23.098Z,14.18
2023-04-28T20:19:24.937Z,14.08
2023-04-28T20:24:26.422Z,13.89
2023-04-28T20:29:34.399Z,13.71
2023-04-28T20:34:36.396Z,13.54
2023-04-28T20:39:37.816Z,13.43
2023-04-28T20:44:40.931Z,13.43
2023-04-28T20:49:42.362Z,13.41
2023-04-28T20:54:43.914Z,13.48
2023-04-28T20:59:45.908Z,13.53
2023-04-28T21:04:47.652Z,13.58
2023-04-28T21:09:49.307Z,13.58
2023-04-28T21:14:50.802Z,13.49
2023-04-28T21:19:55.197Z,13.43
2023-04-28T21:24:57.646Z,13.42
2023-04-28T21:29:59.189Z,13.41
2023-04-28T21:35:00.641Z,13.50
2023-04-28T21:40:02.549Z,13.55
2023-04-28T21:45:04.666Z,13.58
2023-04-28T21:50:06.894Z,13.52
2023-04-28T21:55:08.810Z,13.49
2023-04-28T22:00:12.605Z,13.48
2023-04-28T22:05:14.044Z,13.32
2023-04-28T22:10:17.622Z,13.31
2023-04-28T22:15:19.220Z,13.39
2023-04-28T22:20:20.673Z,13.42
2023-04-28T22:25:22.224Z,13.46
2023-04-28T22:30:25.988Z,13.42
2023-04-28T22:35:28.140Z,13.44
2023-04-28T22:40:29.557Z,13.42
2023-04-28T22:45:31.107Z,13.39
2023-04-28T22:50:32.616Z,13.27
2023-04-28T22:55:34.075Z,13.31
2023-04-28T23:00:35.845Z,13.23
2023-04-28T23:05:38.382Z,13.26
2023-04-28T23:10:39.794Z,13.28
2023-04-28T23:15:41.766Z,13.32
2023-04-28T23:20:43.206Z,13.41
2023-04-28T23:25:44.644Z,13.42
2023-04-28T23:30:46.055Z,13.45
2023-04-28T23:35:47.460Z,13.44
2023-04-28T23:40:48.951Z,13.32
2023-04-28T23:45:50.422Z,13.31
2023-04-28T23:50:51.889Z,13.17
2023-04-28T23:55:53.331Z,12.99
